createdAt,value
2019-02-21T00:02:16.929Z,269.20
2019-02-21T00:04:48.170Z,298.47
2019-02-21T00:07:19.279Z,276.10
2019-02-21T00:09:50.418Z,309.40
2019-02-21T00:12:21.968Z,418.63
2019-02-21T00:14:54.048Z,315.53
2019-02-21T00:17:25.350Z,307.37
2019-02-21T00:19:57.032Z,316.70
2019-02-21T00:22:31.091Z,361.00
2019-02-21T00:25:07.291Z,307.77
2019-02-21T00:27:40.945Z,337.33
2019-02-21T00:30:12.047Z,412.40
2019-02-21T00:32:43.239Z,289.23
2019-02-21T00:35:14.356Z,268.17
2019-02-21T00:37:45.444Z,288.17
2019-02-21T00:40:16.739Z,270.33
2019-02-21T00:42:47.921Z,270.40
2019-02-21T00:45:20.621Z,227.30
2019-02-21T00:47:54.452Z,233.00
2019-02-21T00:50:25.602Z,251.80
2019-02-21T00:52:56.963Z,281.27
2019-02-21T00:55:28.103Z,277.10
2019-02-21T00:58:00.297Z,270.77
2019-02-21T01:00:46.116Z,270.37
2019-02-21T01:03:09.792Z,287.47
2019-02-21T01:05:40.925Z,315.37
2019-02-21T01:08:12.545Z,296.43
2019-02-21T01:10:43.891Z,382.67
2019-02-21T01:13:15.803Z,346.27
2019-02-21T01:15:46.886Z,330.90
2019-02-21T01:18:18.196Z,373.80
2019-02-21T01:20:50.357Z,327.93
2019-02-21T01:23:22.066Z,330.03
2019-02-21T01:25:53.158Z,318.00
2019-02-21T01:28:24.273Z,312.37
2019-02-21T01:30:57.190Z,290.40
2019-02-21T01:33:29.077Z,309.70
2019-02-21T01:36:00.759Z,283.43
2019-02-21T01:38:31.831Z,298.83
2019-02-21T01:41:03.298Z,308.50
2019-02-21T01:43:35.461Z,339.97
2019-02-21T01:46:06.867Z,336.67
2019-02-21T01:48:38.321Z,272.23
2019-02-21T01:51:10.272Z,259.40
2019-02-21T01:53:42.246Z,250.27
2019-02-21T01:56:13.360Z,276.43
2019-02-21T01:58:46.057Z,244.57
2019-02-21T02:01:17.289Z,260.87
2019-02-21T02:03:49.090Z,275.10
2019-02-21T02:06:20.155Z,263.90
2019-02-21T02:08:51.253Z,266.60
2019-02-21T02:11:22.958Z,263.47
2019-02-21T02:13:55.473Z,273.07
2019-02-21T02:16:27.029Z,341.97
2019-02-21T02:18:59.330Z,260.27
2019-02-21T02:21:30.415Z,253.80
2019-02-21T02:24:03.548Z,258.23
2019-02-21T02:26:35.777Z,247.20
2019-02-21T02:29:06.854Z,245.57
2019-02-21T02:31:39.056Z,242.83
2019-02-21T02:34:10.818Z,251.80
2019-02-21T02:36:42.021Z,239.67
2019-02-21T02:39:13.182Z,216.83
2019-02-21T02:41:44.272Z,234.60
2019-02-21T02:44:17.491Z,239.00
2019-02-21T02:46:48.580Z,234.80
2019-02-21T02:49:21.782Z,226.07
2019-02-21T02:51:53.023Z,207.13
2019-02-21T02:54:24.121Z,244.03
2019-02-21T02:56:55.658Z,212.00
2019-02-21T02:59:26.733Z,200.60
2019-02-21T03:01:57.889Z,216.60
2019-02-21T03:04:29.477Z,384.70
2019-02-21T03:07:00.801Z,193.03
2019-02-21T03:09:32.247Z,192.83
2019-02-21T03:12:03.287Z,238.17
2019-02-21T03:14:34.411Z,189.10
2019-02-21T03:17:05.645Z,184.40
2019-02-21T03:19:37.093Z,204.37
2019-02-21T03:22:08.673Z,235.50
2019-02-21T03:24:40.969Z,226.37
2019-02-21T03:27:12.445Z,232.93
2019-02-21T03:29:43.577Z,243.53
2019-02-21T03:32:14.738Z,238.17
2019-02-21T03:34:45.826Z,206.80
2019-02-21T03:37:16.946Z,215.10
2019-02-21T03:39:48.030Z,240.90
2019-02-21T03:42:19.585Z,302.43
2019-02-21T03:44:51.011Z,245.50
2019-02-21T03:47:22.606Z,297.07
2019-02-21T03:49:54.023Z,242.60
2019-02-21T03:52:25.776Z,246.27
2019-02-21T03:54:57.495Z,244.70
2019-02-21T03:57:29.437Z,280.33
2019-02-21T04:00:01.115Z,260.10
2019-02-21T04:02:32.664Z,313.43
2019-02-21T04:05:05.096Z,267.20
2019-02-21T04:07:36.693Z,256.93
2019-02-21T04:10:08.290Z,452.13
2019-02-21T04:12:41.499Z,343.47
2019-02-21T04:15:14.428Z,478.83
2019-02-21T04:17:45.489Z,309.97
2019-02-21T04:20:16.579Z,336.97
2019-02-21T04:22:47.656Z,117.20
2019-02-21T04:25:18.759Z,393.77
2019-02-21T04:27:50.848Z,243.33
2019-02-21T04:30:21.960Z,243.47
2019-02-21T04:32:53.053Z,289.33
2019-02-21T04:35:26.038Z,277.13
2019-02-21T04:37:57.301Z,258.63
2019-02-21T04:40:28.435Z,411.17
2019-02-21T04:43:00.896Z,252.50
2019-02-21T04:45:32.450Z,259.60
2019-02-21T04:48:05.096Z,232.43
2019-02-21T04:50:36.242Z,307.90
2019-02-21T04:53:07.515Z,219.97
2019-02-21T04:55:38.702Z,266.30
2019-02-21T04:58:09.991Z,232.90
2019-02-21T05:00:41.177Z,228.97
2019-02-21T05:03:13.997Z,247.70
2019-02-21T05:05:45.094Z,259.33
2019-02-21T05:08:16.164Z,262.13
2019-02-21T05:10:47.696Z,301.07
2019-02-21T05:13:19.639Z,245.37
2019-02-21T05:15:52.064Z,269.47
2019-02-21T05:18:23.175Z,251.30
2019-02-21T05:20:54.729Z,234.80
2019-02-21T05:23:27.352Z,224.23
2019-02-21T05:26:00.158Z,213.77
2019-02-21T05:28:32.557Z,203.20
2019-02-21T05:31:11.273Z,235.80
2019-02-21T05:33:52.873Z,281.63
2019-02-21T05:36:46.809Z,235.13
2019-02-21T05:39:39.780Z,218.03
2019-02-21T05:42:30.003Z,203.63
2019-02-21T05:45:28.909Z,170.70
2019-02-21T05:48:13.275Z,166.90
2019-02-21T05:51:06.154Z,165.47
2019-02-21T05:53:44.265Z,87.03
2019-02-21T05:56:35.435Z,95.27
2019-02-21T05:59:18.028Z,89.30
2019-02-21T06:02:23.631Z,104.47
2019-02-21T06:05:01.528Z,93.73
2019-02-21T06:07:51.044Z,103.33
2019-02-21T06:10:31.663Z,101.27
2019-02-21T06:13:20.828Z,99.70
2019-02-21T06:16:13.203Z,98.63
2019-02-21T06:19:03.705Z,96.30
2019-02-21T06:21:54.063Z,92.90
2019-02-21T06:24:31.145Z,92.17
2019-02-21T06:27:14.875Z,97.23
2019-02-21T06:30:05.206Z,97.10
2019-02-21T06:32:40.690Z,88.80
2019-02-21T06:35:11.350Z,100.20
2019-02-21T06:37:43.188Z,104.30
2019-02-21T06:40:15.198Z,104.83
2019-02-21T06:42:46.906Z,94.33
2019-02-21T06:45:18.377Z,105.17
2019-02-21T06:47:49.833Z,115.10
2019-02-21T06:50:26.942Z,103.13
2019-02-21T06:52:57.022Z,101.40
2019-02-21T06:55:28.473Z,108.40
2019-02-21T06:58:00.098Z,100.37
2019-02-21T07:00:31.598Z,110.57
2019-02-21T07:03:03.042Z,105.43
2019-02-21T07:05:36.886Z,99.37
2019-02-21T07:08:08.895Z,105.93
2019-02-21T07:10:40.954Z,135.80
2019-02-21T07:13:12.539Z,121.80
2019-02-21T07:15:44.110Z,121.07
2019-02-21T07:18:15.529Z,122.20
2019-02-21T07:20:47.147Z,105.87
2019-02-21T07:23:19.008Z,109.80
2019-02-21T07:25:53.522Z,111.13
2019-02-21T07:28:27.642Z,104.17
2019-02-21T07:30:58.373Z,104.30
2019-02-21T07:33:30.029Z,103.73
2019-02-21T07:36:01.660Z,116.07
2019-02-21T07:38:33.458Z,117.27
2019-02-21T07:41:05.103Z,124.57
2019-02-21T07:43:36.762Z,103.83
2019-02-21T07:46:08.273Z,104.33
2019-02-21T07:48:39.867Z,295.73
2019-02-21T07:51:13.402Z,70.77
2019-02-21T07:53:44.599Z,66.97
2019-02-21T07:56:16.134Z,73.37
2019-02-21T07:58:47.615Z,96.17
2019-02-21T08:01:19.143Z,103.53
2019-02-21T08:03:50.838Z,104.53
2019-02-21T08:06:22.422Z,74.57
2019-02-21T08:08:53.853Z,76.30
2019-02-21T08:11:25.648Z,73.13
2019-02-21T08:13:57.216Z,99.97
2019-02-21T08:16:28.930Z,105.50
2019-02-21T08:19:00.361Z,136.43
2019-02-21T08:21:31.947Z,98.17
2019-02-21T08:24:03.379Z,107.83
2019-02-21T08:26:34.956Z,115.27
2019-02-21T08:29:06.425Z,118.33
2019-02-21T08:31:38.072Z,76.80
2019-02-21T08:34:23.294Z,88.47
2019-02-21T08:36:54.891Z,101.73
2019-02-21T08:39:26.418Z,124.27
2019-02-21T08:41:58.038Z,115.43
2019-02-21T08:44:29.522Z,138.93
2019-02-21T08:47:01.041Z,117.67
2019-02-21T08:49:32.490Z,110.70
2019-02-21T08:52:04.073Z,137.20
2019-02-21T08:54:35.588Z,82.47
2019-02-21T08:57:07.194Z,74.63
2019-02-21T08:59:38.615Z,81.37
2019-02-21T09:02:10.143Z,93.53
2019-02-21T09:04:41.775Z,85.90
2019-02-21T09:07:13.386Z,82.00
2019-02-21T09:09:44.912Z,82.93
2019-02-21T09:12:16.384Z,89.73
2019-02-21T09:14:48.507Z,68.53
2019-02-21T09:17:20.106Z,73.47
2019-02-21T09:19:51.531Z,75.10
2019-02-21T09:22:23.460Z,78.63
2019-02-21T09:24:55.138Z,81.07
2019-02-21T09:27:26.894Z,79.93
2019-02-21T09:29:58.433Z,82.17
2019-02-21T09:32:30.088Z,79.67
2019-02-21T09:35:01.677Z,79.97
2019-02-21T09:37:33.171Z,70.80
2019-02-21T09:40:05.460Z,147.23
2019-02-21T09:42:37.068Z,134.77
2019-02-21T09:45:15.181Z,127.73
2019-02-21T09:47:46.646Z,127.13
2019-02-21T09:50:18.190Z,128.87
2019-02-21T09:52:52.396Z,138.43
2019-02-21T09:55:24.342Z,108.73
2019-02-21T09:57:56.203Z,116.80
2019-02-21T10:00:27.574Z,116.03
2019-02-21T10:02:59.087Z,132.20
2019-02-21T10:05:31.590Z,130.53
2019-02-21T10:08:03.183Z,144.07
2019-02-21T10:10:34.768Z,156.73
2019-02-21T10:13:06.191Z,150.33
2019-02-21T10:15:37.777Z,128.97
2019-02-21T10:18:09.228Z,137.57
2019-02-21T10:20:40.704Z,173.00
2019-02-21T10:23:12.249Z,154.87
2019-02-21T10:25:43.819Z,143.73
2019-02-21T10:28:15.447Z,176.50
2019-02-21T10:30:46.898Z,156.63
2019-02-21T10:33:18.416Z,139.17
2019-02-21T10:35:49.899Z,149.10
2019-02-21T10:38:21.662Z,151.50
2019-02-21T10:40:53.030Z,153.90
2019-02-21T10:43:24.539Z,134.97
2019-02-21T10:45:56.085Z,154.47
2019-02-21T10:48:27.579Z,154.83
2019-02-21T10:50:59.299Z,145.73
2019-02-21T10:53:30.774Z,162.50
2019-02-21T10:56:02.242Z,177.23
2019-02-21T10:58:33.761Z,164.57
2019-02-21T11:01:05.329Z,484.20
2019-02-21T11:03:36.960Z,185.57
2019-02-21T11:06:08.459Z,165.63
2019-02-21T11:08:39.904Z,227.43
2019-02-21T11:11:11.382Z,186.27
2019-02-21T11:13:43.065Z,150.87
2019-02-21T11:16:14.545Z,155.80
2019-02-21T11:18:45.994Z,141.33
2019-02-21T11:21:17.964Z,153.37
2019-02-21T11:23:49.628Z,152.60
2019-02-21T11:26:21.474Z,181.70
2019-02-21T11:28:52.923Z,149.60
2019-02-21T11:31:24.374Z,178.60
2019-02-21T11:33:55.814Z,149.83
2019-02-21T11:36:27.475Z,138.10
2019-02-21T11:38:58.997Z,161.97
2019-02-21T11:41:30.375Z,187.83
2019-02-21T11:44:01.742Z,167.37
2019-02-21T11:46:33.177Z,183.60
2019-02-21T11:49:04.936Z,154.97
2019-02-21T11:51:36.463Z,159.03
2019-02-21T11:54:07.839Z,162.80
2019-02-21T11:56:39.471Z,142.23
2019-02-21T11:59:10.983Z,160.00
2019-02-21T12:01:42.802Z,154.50
2019-02-21T12:04:14.345Z,159.77
2019-02-21T12:06:47.720Z,163.07
2019-02-21T12:09:19.129Z,193.37
2019-02-21T12:11:50.868Z,158.10
2019-02-21T12:14:22.299Z,201.73
2019-02-21T12:16:53.930Z,168.23
2019-02-21T12:19:25.645Z,218.07
2019-02-21T12:21:59.291Z,159.60
2019-02-21T12:24:30.420Z,170.03
2019-02-21T12:27:01.961Z,174.70
2019-02-21T12:29:33.542Z,169.23
2019-02-21T12:32:05.075Z,207.37
2019-02-21T12:34:36.603Z,187.07
2019-02-21T12:37:08.305Z,197.00
2019-02-21T12:39:39.943Z,178.13
2019-02-21T12:42:11.491Z,241.63
2019-02-21T12:44:42.998Z,171.77
2019-02-21T12:47:14.654Z,151.57
2019-02-21T12:49:46.075Z,167.03
2019-02-21T12:52:17.613Z,153.87
2019-02-21T12:54:51.750Z,170.07
2019-02-21T12:57:22.003Z,171.90
2019-02-21T12:59:53.049Z,174.13
2019-02-21T13:02:24.090Z,180.53
2019-02-21T13:04:55.152Z,169.07
2019-02-21T13:07:26.191Z,170.83
2019-02-21T13:09:57.276Z,178.37
2019-02-21T13:12:28.270Z,170.23
2019-02-21T13:14:59.324Z,173.90
2019-02-21T13:17:30.376Z,166.30
2019-02-21T13:20:01.449Z,189.03
2019-02-21T13:22:32.495Z,181.57
2019-02-21T13:25:03.594Z,212.43
2019-02-21T13:27:34.579Z,181.80
2019-02-21T13:30:06.391Z,241.73
2019-02-21T13:32:37.500Z,213.07
2019-02-21T13:35:09.205Z,214.97
2019-02-21T13:37:40.318Z,204.17
2019-02-21T13:40:13.543Z,195.57
2019-02-21T13:42:44.616Z,213.37
2019-02-21T13:45:17.909Z,218.27
2019-02-21T13:47:49.255Z,224.73
2019-02-21T13:50:20.504Z,221.43
2019-02-21T13:52:51.634Z,196.50
2019-02-21T13:55:22.686Z,183.73
2019-02-21T13:57:53.819Z,181.37
2019-02-21T14:00:24.889Z,194.63
2019-02-21T14:02:55.916Z,179.17
2019-02-21T14:05:26.942Z,192.83
2019-02-21T14:07:57.982Z,317.90
2019-02-21T14:10:29.039Z,210.00
2019-02-21T14:13:00.079Z,186.77
2019-02-21T14:15:31.172Z,173.93
2019-02-21T14:18:02.219Z,174.70
2019-02-21T14:20:44.587Z,189.57
2019-02-21T14:23:06.024Z,215.83
2019-02-21T14:25:40.822Z,261.70
2019-02-21T14:28:09.782Z,199.70
2019-02-21T14:30:40.844Z,200.47
2019-02-21T14:33:11.893Z,216.47
2019-02-21T14:35:42.933Z,198.47
2019-02-21T14:38:13.976Z,180.97
2019-02-21T14:40:45.022Z,242.40
2019-02-21T14:43:17.045Z,323.97
2019-02-21T14:45:48.203Z,291.90
2019-02-21T14:48:19.250Z,279.70
